Time;durP1;ratioP1;P1;durP2;ratioP2;P2;SDS_P1;SDS_P2;PMS_P1;PMS_P2;Temp;Humidity;BMP_temperature;BMP_pressure;BME280_temperature;BME280_humidity;BME280_pressure;Samples;Min_cycle;Max_cycle;Signal;HPM_P1;HPM_P2
2021/10/30 00:00:07;;;;;;;7.50;2.28;;;21.20;49.50;;;;;;5025075;28;20188;-68
2021/10/30 00:02:32;;;;;;;4.40;2.00;;;21.20;49.60;;;;;;5014349;28;20052;-68
2021/10/30 00:04:58;;;;;;;5.95;2.20;;;21.20;49.80;;;;;;5024796;28;20037;-68
2021/10/30 00:07:24;;;;;;;5.78;2.03;;;21.20;49.70;;;;;;5024879;28;20059;-70
2021/10/30 00:09:49;;;;;;;6.88;2.45;;;21.20;49.70;;;;;;5026008;28;20044;-68
2021/10/30 00:12:15;;;;;;;6.38;2.53;;;21.10;49.40;;;;;;5025233;28;20494;-68
2021/10/30 00:14:43;;;;;;;5.38;2.10;;;21.20;49.70;;;;;;5024074;28;20038;-68
2021/10/30 00:17:12;;;;;;;5.20;2.20;;;21.20;49.80;;;;;;5021619;28;20049;-68
2021/10/30 00:19:38;;;;;;;5.10;1.92;;;21.20;49.70;;;;;;5019064;28;20045;-68
2021/10/30 00:22:04;;;;;;;6.10;2.40;;;21.20;49.80;;;;;;5026405;28;20116;-70
2021/10/30 00:24:32;;;;;;;5.35;2.10;;;21.20;49.80;;;;;;5017153;28;20048;-70
2021/10/30 00:26:58;;;;;;;5.13;2.15;;;21.20;49.90;;;;;;5025337;28;20049;-68
2021/10/30 00:29:24;;;;;;;5.45;2.00;;;21.20;49.60;;;;;;5024231;28;20087;-70
2021/10/30 00:31:50;;;;;;;4.55;2.03;;;21.20;49.70;;;;;;5022229;28;20292;-70
2021/10/30 00:34:16;;;;;;;5.10;2.10;;;21.20;49.50;;;;;;5022720;28;20069;-70
2021/10/30 00:36:42;;;;;;;5.38;2.05;;;21.20;49.50;;;;;;5020467;28;20068;-67
2021/10/30 00:39:08;;;;;;;4.97;2.13;;;21.20;50.00;;;;;;5021391;28;20046;-69
2021/10/30 00:41:34;;;;;;;5.93;2.10;;;21.20;49.70;;;;;;5016611;28;20041;-69
2021/10/30 00:44:10;;;;;;;5.28;2.03;;;21.20;49.70;;;;;;5021185;28;20038;-69
2021/10/30 00:46:39;;;;;;;4.93;2.08;;;21.10;49.60;;;;;;5021144;28;20500;-70
2021/10/30 00:49:05;;;;;;;6.03;2.15;;;21.20;49.50;;;;;;5017793;28;20033;-69
2021/10/30 00:51:35;;;;;;;5.57;2.40;;;21.20;49.60;;;;;;5017007;28;20045;-69
2021/10/30 00:54:02;;;;;;;6.25;2.10;;;21.10;49.80;;;;;;5017832;28;20525;-71
2021/10/30 00:56:31;;;;;;;5.63;2.10;;;21.20;49.80;;;;;;5016734;28;20640;-72
2021/10/30 00:58:59;;;;;;;7.22;2.33;;;21.10;49.50;;;;;;5018987;28;20069;-71
2021/10/30 01:01:24;;;;;;;7.85;2.13;;;21.10;50.20;;;;;;5017151;28;20161;-71
2021/10/30 01:03:51;;;;;;;7.15;2.30;;;21.10;50.20;;;;;;5021238;28;20144;-71
2021/10/30 01:06:18;;;;;;;5.57;2.08;;;21.10;49.80;;;;;;5017712;28;20057;-69
2021/10/30 01:08:44;;;;;;;5.03;1.77;;;21.10;49.60;;;;;;5019891;28;20034;-70
2021/10/30 01:11:11;;;;;;;4.53;1.95;;;21.20;50.20;;;;;;5021008;28;20133;-69
2021/10/30 01:13:39;;;;;;;5.20;2.20;;;21.10;50.00;;;;;;5039907;28;20038;-70
2021/10/30 01:16:05;;;;;;;5.55;2.30;;;21.10;49.30;;;;;;5025795;28;20064;-69
2021/10/30 01:18:30;;;;;;;5.68;2.15;;;21.10;49.50;;;;;;5023951;28;20044;-70
2021/10/30 01:20:58;;;;;;;5.32;2.20;;;21.10;50.30;;;;;;5022582;28;20048;-69
2021/10/30 01:23:24;;;;;;;5.15;2.13;;;21.10;49.80;;;;;;5019262;28;20495;-70
2021/10/30 01:26:00;;;;;;;5.68;2.17;;;21.10;49.70;;;;;;5020569;28;20137;-69
2021/10/30 01:28:27;;;;;;;5.50;2.28;;;21.10;50.10;;;;;;5017038;28;20042;-69
2021/10/30 01:30:54;;;;;;;5.72;2.20;;;21.10;49.90;;;;;;5018783;28;20124;-69
2021/10/30 01:33:21;;;;;;;4.53;1.70;;;21.10;49.80;;;;;;5019701;28;20045;-69
2021/10/30 01:35:47;;;;;;;7.22;2.20;;;21.10;50.00;;;;;;5013008;28;20049;-71
2021/10/30 01:38:13;;;;;;;5.55;2.22;;;21.10;50.00;;;;;;5016016;28;20045;-71
2021/10/30 01:40:48;;;;;;;7.97;2.03;;;21.10;50.40;;;;;;5018290;28;20049;-71
2021/10/30 01:43:15;;;;;;;5.22;2.10;;;21.10;50.10;;;;;;5018444;28;20042;-71
2021/10/30 01:45:43;;;;;;;4.95;2.00;;;21.10;50.00;;;;;;5015439;28;20042;-71
2021/10/30 01:48:09;;;;;;;5.47;2.20;;;21.10;49.80;;;;;;5020616;28;20048;-71
2021/10/30 01:50:35;;;;;;;6.05;2.50;;;21.10;50.00;;;;;;5019091;28;20045;-71
2021/10/30 01:53:03;;;;;;;6.30;2.25;;;21.10;50.10;;;;;;5016606;28;20398;-71
2021/10/30 01:55:32;;;;;;;5.10;2.10;;;21.10;49.80;;;;;;5019882;28;20049;-71
2021/10/30 01:57:59;;;;;;;5.75;2.10;;;21.10;49.70;;;;;;5024094;28;20563;-71
2021/10/30 02:00:24;;;;;;;5.03;2.13;;;21.10;50.40;;;;;;5022195;28;20129;-71
2021/10/30 02:02:50;;;;;;;5.35;2.10;;;21.10;50.40;;;;;;5020073;28;20137;-71
2021/10/30 02:05:16;;;;;;;5.40;2.05;;;21.00;50.20;;;;;;5023198;28;20633;-71
2021/10/30 02:07:42;;;;;;;6.32;2.10;;;21.00;50.00;;;;;;5016331;28;20061;-71
2021/10/30 02:10:10;;;;;;;5.53;2.13;;;21.10;50.20;;;;;;5018328;28;20071;-71
2021/10/30 02:12:36;;;;;;;5.05;2.13;;;21.10;50.50;;;;;;5012395;28;20045;-71
2021/10/30 02:15:03;;;;;;;5.70;2.00;;;21.00;49.90;;;;;;5016063;28;20038;-71
2021/10/30 02:17:28;;;;;;;5.95;2.30;;;21.00;50.40;;;;;;5014648;28;20747;-71
2021/10/30 02:19:54;;;;;;;5.55;2.00;;;21.00;50.20;;;;;;5016670;28;20041;-71
2021/10/30 02:22:20;;;;;;;5.75;2.17;;;21.00;50.40;;;;;;5016247;28;20037;-71
2021/10/30 02:24:47;;;;;;;4.88;1.90;;;21.00;50.50;;;;;;5019701;28;20026;-71
2021/10/30 02:27:13;;;;;;;6.97;2.40;;;21.00;50.30;;;;;;5021270;28;20090;-71
2021/10/30 02:29:38;;;;;;;6.57;2.20;;;21.00;50.50;;;;;;5020980;28;20048;-69
2021/10/30 02:32:05;;;;;;;4.95;1.80;;;21.00;50.30;;;;;;5023339;28;20121;-69
2021/10/30 02:34:31;;;;;;;6.55;2.20;;;21.10;50.60;;;;;;5035336;28;20043;-69
2021/10/30 02:36:57;;;;;;;5.00;2.00;;;21.10;50.50;;;;;;5024427;28;20876;-69
2021/10/30 02:39:23;;;;;;;4.85;2.00;;;21.00;50.40;;;;;;5022401;28;20063;-70
2021/10/30 02:41:49;;;;;;;4.88;2.08;;;21.00;50.60;;;;;;5016398;28;20567;-70
2021/10/30 02:44:17;;;;;;;5.50;1.98;;;21.00;50.80;;;;;;5023286;28;20050;-69
2021/10/30 02:46:42;;;;;;;5.85;2.13;;;21.00;50.60;;;;;;5021251;28;20103;-69
2021/10/30 02:49:08;;;;;;;6.18;2.30;;;21.00;50.40;;;;;;5023382;28;20076;-70
2021/10/30 02:51:34;;;;;;;5.35;2.08;;;21.00;50.80;;;;;;5021122;28;20437;-69
2021/10/30 02:53:59;;;;;;;4.55;2.05;;;21.00;50.70;;;;;;5021048;28;20486;-69
2021/10/30 02:56:25;;;;;;;9.02;2.60;;;21.00;49.90;;;;;;5020316;28;20057;-69
2021/10/30 02:58:51;;;;;;;6.28;1.95;;;21.00;50.40;;;;;;5023259;28;20049;-70
2021/10/30 03:01:17;;;;;;;5.13;2.00;;;21.00;50.80;;;;;;5025892;28;20052;-69
2021/10/30 03:03:42;;;;;;;4.50;1.75;;;21.00;50.70;;;;;;5024628;28;20041;-69
2021/10/30 03:06:08;;;;;;;9.15;2.10;;;21.00;50.50;;;;;;5024548;28;20643;-70
2021/10/30 03:08:35;;;;;;;5.60;2.20;;;21.00;50.70;;;;;;5033527;28;20064;-70
2021/10/30 03:11:01;;;;;;;5.10;1.95;;;21.00;50.80;;;;;;5035822;28;20050;-69
2021/10/30 03:13:27;;;;;;;4.97;1.80;;;21.00;50.20;;;;;;5026610;28;20041;-69
2021/10/30 03:15:54;;;;;;;7.80;2.17;;;21.00;50.80;;;;;;5041807;28;20037;-69
2021/10/30 03:18:20;;;;;;;8.18;1.92;;;21.00;51.70;;;;;;5029554;28;20029;-70
2021/10/30 03:20:46;;;;;;;6.22;1.92;;;21.00;51.70;;;;;;5024122;28;20498;-69
2021/10/30 03:23:12;;;;;;;4.65;1.83;;;21.00;51.90;;;;;;5022624;28;20117;-69
2021/10/30 03:25:38;;;;;;;4.80;1.65;;;21.00;52.10;;;;;;5040469;28;20038;-69
2021/10/30 03:28:04;;;;;;;7.05;1.73;;;21.10;51.80;;;;;;5035481;28;20057;-69
2021/10/30 03:30:30;;;;;;;4.53;1.60;;;21.10;51.90;;;;;;5034945;28;20069;-69
2021/10/30 03:32:56;;;;;;;3.90;1.50;;;21.10;51.60;;;;;;5014423;28;20050;-69
2021/10/30 03:35:21;;;;;;;5.20;1.80;;;21.10;51.60;;;;;;5018687;28;20048;-70
2021/10/30 03:37:47;;;;;;;4.70;1.77;;;21.10;51.50;;;;;;5017173;28;20954;-70
2021/10/30 03:40:13;;;;;;;5.40;1.70;;;21.10;51.30;;;;;;5018886;28;20033;-70
2021/10/30 03:42:39;;;;;;;5.45;1.50;;;21.20;51.70;;;;;;5023683;28;20425;-70
2021/10/30 03:45:06;;;;;;;4.90;1.70;;;21.20;52.00;;;;;;5023271;28;20044;-70
2021/10/30 03:47:32;;;;;;;5.18;1.50;;;21.20;51.60;;;;;;5021518;28;20220;-70
2021/10/30 03:49:58;;;;;;;4.93;1.40;;;21.20;51.50;;;;;;5024860;28;20073;-70
2021/10/30 03:52:24;;;;;;;5.05;1.60;;;21.30;51.50;;;;;;5023391;28;20132;-70
2021/10/30 03:54:50;;;;;;;4.20;1.60;;;21.30;51.50;;;;;;5015218;28;20095;-70
2021/10/30 03:57:16;;;;;;;4.50;1.60;;;21.30;51.50;;;;;;5022658;28;20732;-70
2021/10/30 03:59:42;;;;;;;5.13;1.60;;;21.30;51.40;;;;;;5022474;28;20033;-70
2021/10/30 04:02:08;;;;;;;5.72;1.73;;;21.30;51.50;;;;;;5023761;28;20565;-69
2021/10/30 04:04:37;;;;;;;5.05;1.60;;;21.40;51.70;;;;;;5024497;28;20030;-69
2021/10/30 04:07:03;;;;;;;4.00;1.52;;;21.30;51.60;;;;;;5041784;28;20048;-70
2021/10/30 04:09:29;;;;;;;5.15;1.58;;;21.40;51.70;;;;;;5022196;28;20049;-69
2021/10/30 04:11:54;;;;;;;4.32;1.52;;;21.40;51.80;;;;;;5018041;28;20046;-70
2021/10/30 04:14:20;;;;;;;4.13;1.52;;;21.40;51.60;;;;;;5026663;28;20037;-70
2021/10/30 04:16:47;;;;;;;4.63;1.55;;;21.40;51.60;;;;;;5018207;28;20530;-69
2021/10/30 04:19:13;;;;;;;3.75;1.58;;;21.40;51.60;;;;;;5026107;28;20130;-70
2021/10/30 04:21:43;;;;;;;4.43;1.50;;;21.40;52.20;;;;;;5026642;28;20049;-70
2021/10/30 04:24:08;;;;;;;7.32;1.35;;;21.40;51.60;;;;;;5019189;28;20037;-70
2021/10/30 04:26:34;;;;;;;4.60;1.55;;;21.50;51.70;;;;;;5025440;28;20422;-69
2021/10/30 04:29:00;;;;;;;4.10;1.63;;;21.50;51.70;;;;;;5025941;28;20046;-69
2021/10/30 04:31:28;;;;;;;5.93;1.40;;;21.50;51.70;;;;;;5024556;28;20046;-69
2021/10/30 04:34:00;;;;;;;4.55;1.63;;;21.50;51.90;;;;;;5023332;28;20048;-70
2021/10/30 04:36:28;;;;;;;4.85;1.50;;;21.50;51.70;;;;;;5020358;28;20051;-69
2021/10/30 04:38:54;;;;;;;7.00;1.83;;;21.50;51.60;;;;;;5024235;28;20048;-70
2021/10/30 04:41:21;;;;;;;6.93;1.83;;;21.50;51.60;;;;;;5019081;28;20116;-69
2021/10/30 04:43:48;;;;;;;9.43;1.70;;;21.50;51.60;;;;;;5023707;28;20033;-71
2021/10/30 04:46:19;;;;;;;8.82;1.80;;;21.50;51.60;;;;;;5022025;28;20474;-71
2021/10/30 04:48:45;;;;;;;6.90;1.50;;;21.50;51.30;;;;;;5020162;28;20121;-70
2021/10/30 04:51:11;;;;;;;7.97;1.65;;;21.50;51.60;;;;;;5023950;28;20056;-70
2021/10/30 04:53:40;;;;;;;4.20;1.50;;;21.50;51.50;;;;;;5016922;28;20041;-70
2021/10/30 04:56:07;;;;;;;5.32;1.70;;;21.50;51.60;;;;;;5018540;28;20049;-70
2021/10/30 04:58:34;;;;;;;4.75;1.63;;;21.50;51.50;;;;;;5018503;28;20046;-71
2021/10/30 05:01:00;;;;;;;5.97;1.63;;;21.60;51.50;;;;;;5019354;28;20048;-71
2021/10/30 05:03:26;;;;;;;10.93;1.73;;;21.50;51.40;;;;;;5018346;28;20041;-70
2021/10/30 05:05:52;;;;;;;5.68;1.73;;;21.50;51.40;;;;;;5014834;28;20135;-70
2021/10/30 05:08:19;;;;;;;5.47;1.80;;;21.50;51.30;;;;;;5022617;28;20693;-70
2021/10/30 05:10:44;;;;;;;6.13;1.73;;;21.50;51.20;;;;;;5022665;28;20042;-70
2021/10/30 05:13:10;;;;;;;5.05;1.60;;;21.50;51.40;;;;;;5019431;28;20067;-70
2021/10/30 05:15:36;;;;;;;5.57;1.50;;;21.50;51.40;;;;;;5015765;28;20101;-69
2021/10/30 05:18:02;;;;;;;4.03;1.30;;;21.50;51.60;;;;;;5016508;28;20568;-68
2021/10/30 05:20:28;;;;;;;5.07;1.67;;;21.50;51.80;;;;;;5020697;28;20048;-69
2021/10/30 05:22:54;;;;;;;6.13;1.80;;;21.60;52.20;;;;;;5019749;28;20057;-69
2021/10/30 05:25:21;;;;;;;5.85;1.60;;;21.50;52.10;;;;;;5022128;28;20045;-69
2021/10/30 05:27:47;;;;;;;5.68;1.70;;;21.60;52.40;;;;;;5021888;28;20045;-69
2021/10/30 05:30:12;;;;;;;5.68;1.85;;;21.60;52.10;;;;;;5020351;28;20672;-69
2021/10/30 05:32:38;;;;;;;7.07;1.98;;;21.50;51.60;;;;;;5021229;28;20029;-69
2021/10/30 05:35:22;;;;;;;5.00;1.83;;;21.60;51.50;;;;;;5017932;28;20034;-69
2021/10/30 05:38:13;;;;;;;5.00;1.98;;;21.50;51.60;;;;;;5022343;28;20044;-70
2021/10/30 05:40:38;;;;;;;7.47;1.50;;;21.50;51.70;;;;;;5013719;28;20498;-69
2021/10/30 05:43:05;;;;;;;4.70;1.50;;;21.60;52.10;;;;;;5019625;28;20096;-68
2021/10/30 05:45:31;;;;;;;5.63;1.60;;;21.60;52.40;;;;;;5019573;28;20494;-68
2021/10/30 05:47:57;;;;;;;5.45;1.50;;;21.60;53.20;;;;;;5022090;28;20035;-69
2021/10/30 05:50:22;;;;;;;6.80;1.95;;;21.60;53.50;;;;;;5023178;28;20056;-68
2021/10/30 05:52:48;;;;;;;4.45;1.63;;;21.60;52.90;;;;;;5021588;28;20048;-69
2021/10/30 05:55:14;;;;;;;4.75;1.80;;;21.50;52.30;;;;;;5023356;28;20056;-69
2021/10/30 05:57:39;;;;;;;5.78;1.70;;;21.60;52.30;;;;;;5020709;28;20533;-68
2021/10/30 06:00:06;;;;;;;6.88;2.20;;;21.50;52.00;;;;;;5020442;28;20033;-68
2021/10/30 06:02:38;;;;;;;13.00;2.38;;;21.50;51.00;;;;;;5021294;28;20038;-69
2021/10/30 06:05:04;;;;;;;5.90;1.83;;;21.50;51.20;;;;;;5021642;28;20083;-68
2021/10/30 06:07:30;;;;;;;7.95;2.00;;;21.50;51.30;;;;;;5020468;28;20506;-68
2021/10/30 06:09:55;;;;;;;4.55;1.80;;;21.50;52.20;;;;;;5033941;28;20120;-68
2021/10/30 06:12:21;;;;;;;6.55;2.20;;;21.50;52.10;;;;;;5017952;28;20117;-69
2021/10/30 06:14:47;;;;;;;5.13;2.00;;;21.60;51.50;;;;;;5019108;28;20528;-69
2021/10/30 06:17:13;;;;;;;9.07;2.47;;;21.50;51.30;;;;;;5016441;28;20120;-69
2021/10/30 06:19:39;;;;;;;5.03;1.55;;;21.50;52.40;;;;;;5012635;28;20042;-68
2021/10/30 06:22:04;;;;;;;4.68;1.70;;;21.50;52.70;;;;;;5015392;28;20111;-67
2021/10/30 06:24:30;;;;;;;12.00;2.05;;;21.50;52.90;;;;;;5015389;28;20057;-68
2021/10/30 06:26:56;;;;;;;10.45;1.90;;;21.50;53.20;;;;;;5018024;28;20048;-68
2021/10/30 06:29:21;;;;;;;8.65;1.98;;;21.50;53.30;;;;;;5019421;28;20041;-68
2021/10/30 06:31:47;;;;;;;8.98;1.60;;;21.50;53.20;;;;;;5033379;28;20115;-69
2021/10/30 06:34:14;;;;;;;5.25;1.83;;;21.50;53.20;;;;;;5020761;28;20049;-68
2021/10/30 06:36:40;;;;;;;7.35;1.80;;;21.50;53.20;;;;;;5018758;28;20108;-68
2021/10/30 06:39:05;;;;;;;6.90;1.65;;;21.50;53.30;;;;;;5019543;28;20028;-68
2021/10/30 06:41:33;;;;;;;8.93;1.95;;;21.50;53.90;;;;;;5020149;28;20049;-68
2021/10/30 06:44:00;;;;;;;8.38;1.80;;;21.50;53.20;;;;;;5031036;28;20141;-68
2021/10/30 06:46:25;;;;;;;7.70;1.90;;;21.50;53.30;;;;;;5025033;28;20118;-69
2021/10/30 06:48:55;;;;;;;5.18;1.80;;;21.50;53.70;;;;;;5022543;28;20506;-70
2021/10/30 06:51:22;;;;;;;10.50;1.52;;;21.50;53.90;;;;;;5019161;28;20540;-68
2021/10/30 06:53:47;;;;;;;8.02;1.75;;;21.50;53.80;;;;;;5031556;28;20129;-69
2021/10/30 06:56:13;;;;;;;8.10;1.90;;;21.50;53.70;;;;;;5023368;28;20128;-68
2021/10/30 06:58:40;;;;;;;4.72;1.70;;;21.40;53.10;;;;;;5023322;28;20090;-68
2021/10/30 07:01:06;;;;;;;6.75;1.80;;;21.40;53.50;;;;;;5013234;28;20079;-68
2021/10/30 07:03:31;;;;;;;7.38;1.70;;;21.40;53.60;;;;;;5023469;28;20438;-68
2021/10/30 07:05:57;;;;;;;7.43;1.60;;;21.40;53.20;;;;;;5022691;28;20125;-68
2021/10/30 07:08:23;;;;;;;10.30;1.67;;;21.40;53.70;;;;;;5016404;28;20058;-69
2021/10/30 07:10:48;;;;;;;5.95;1.98;;;21.40;53.60;;;;;;5020741;28;20110;-68
2021/10/30 07:13:16;;;;;;;5.70;1.80;;;21.40;53.30;;;;;;5019261;28;20643;-68
2021/10/30 07:15:41;;;;;;;8.77;1.58;;;21.40;53.50;;;;;;5020409;28;20100;-68
2021/10/30 07:18:07;;;;;;;10.52;1.75;;;21.40;53.70;;;;;;5019416;28;20037;-68
2021/10/30 07:20:33;;;;;;;6.35;1.80;;;21.40;53.90;;;;;;5017032;28;20030;-68
2021/10/30 07:22:59;;;;;;;9.68;2.55;;;21.40;53.70;;;;;;5023873;28;20034;-67
2021/10/30 07:25:24;;;;;;;4.32;1.60;;;21.40;53.80;;;;;;5017601;28;20133;-68
2021/10/30 07:27:51;;;;;;;5.32;1.73;;;21.30;53.50;;;;;;5019122;28;20045;-67
2021/10/30 07:30:17;;;;;;;8.77;1.50;;;21.30;53.60;;;;;;5018540;28;20128;-68
2021/10/30 07:32:43;;;;;;;4.78;1.63;;;21.30;53.60;;;;;;5030777;28;20087;-67
2021/10/30 07:35:10;;;;;;;4.85;1.45;;;21.30;53.60;;;;;;5018915;28;20055;-69
2021/10/30 07:37:36;;;;;;;4.00;1.33;;;21.40;53.90;;;;;;5019501;28;20046;-68
2021/10/30 07:40:04;;;;;;;6.50;1.77;;;21.40;54.00;;;;;;5030527;28;20042;-68
2021/10/30 07:42:29;;;;;;;5.25;1.52;;;21.30;53.70;;;;;;5017687;28;20044;-69
2021/10/30 07:44:56;;;;;;;5.25;1.70;;;21.30;53.90;;;;;;5029473;28;20414;-69
2021/10/30 07:47:22;;;;;;;4.88;1.60;;;21.30;53.80;;;;;;5015667;28;20132;-69
2021/10/30 07:49:47;;;;;;;7.65;1.58;;;21.30;53.70;;;;;;5025368;28;20119;-68
2021/10/30 07:52:13;;;;;;;8.15;1.90;;;21.30;53.70;;;;;;5021541;28;20589;-68
2021/10/30 07:54:39;;;;;;;5.75;1.50;;;21.30;53.40;;;;;;5020798;28;20076;-67
2021/10/30 07:57:07;;;;;;;7.68;2.13;;;21.30;53.50;;;;;;5024090;28;20050;-67
2021/10/30 07:59:33;;;;;;;5.50;1.70;;;21.30;53.30;;;;;;5022983;28;20041;-67
2021/10/30 08:01:59;;;;;;;12.05;2.40;;;21.30;53.00;;;;;;5026433;28;20045;-67
2021/10/30 08:04:25;;;;;;;14.07;2.63;;;21.30;51.60;;;;;;5023113;28;20037;-68
2021/10/30 08:06:50;;;;;;;11.90;2.22;;;21.30;51.20;;;;;;5030463;28;20355;-68
2021/10/30 08:09:16;;;;;;;9.10;2.17;;;21.30;51.10;;;;;;5027767;28;20422;-68
2021/10/30 08:11:42;;;;;;;6.43;1.70;;;21.30;50.90;;;;;;5025440;28;20440;-68
2021/10/30 08:14:08;;;;;;;10.68;2.15;;;21.30;50.70;;;;;;5024679;28;20041;-68
2021/10/30 08:16:34;;;;;;;5.82;2.00;;;21.30;50.60;;;;;;5023951;28;20339;-66
2021/10/30 08:18:59;;;;;;;6.53;1.90;;;21.30;50.30;;;;;;5021265;28;20554;-68
2021/10/30 08:21:25;;;;;;;8.27;1.95;;;21.30;50.30;;;;;;5017592;28;20104;-68
2021/10/30 08:23:51;;;;;;;6.35;1.80;;;21.40;50.30;;;;;;5022508;28;20068;-66
2021/10/30 08:26:17;;;;;;;7.38;2.10;;;21.40;50.20;;;;;;5018290;28;20403;-66
2021/10/30 08:28:46;;;;;;;30.58;3.63;;;21.40;49.90;;;;;;5024271;28;20029;-66
2021/10/30 08:31:12;;;;;;;17.65;2.80;;;21.30;47.10;;;;;;5025910;28;20405;-66
2021/10/30 08:33:38;;;;;;;15.18;2.30;;;21.20;47.40;;;;;;5024769;28;20087;-66
2021/10/30 08:36:04;;;;;;;14.93;2.83;;;21.20;49.10;;;;;;5020428;28;20041;-66
2021/10/30 08:38:31;;;;;;;11.40;3.05;;;21.20;48.10;;;;;;5023527;28;20457;-67
2021/10/30 08:40:57;;;;;;;10.82;3.30;;;21.10;46.60;;;;;;5018664;28;20406;-66
2021/10/30 08:43:25;;;;;;;13.75;3.88;;;21.10;45.70;;;;;;5023843;28;20055;-66
2021/10/30 08:45:52;;;;;;;12.70;3.30;;;21.00;44.70;;;;;;5021090;28;20065;-65
2021/10/30 08:48:22;;;;;;;12.88;3.35;;;20.90;44.10;;;;;;5020957;28;20581;-66
2021/10/30 08:50:48;;;;;;;12.70;3.30;;;20.90;44.20;;;;;;5023415;28;20152;-66
2021/10/30 08:53:14;;;;;;;16.40;3.17;;;20.90;45.40;;;;;;5019841;28;20076;-66
2021/10/30 08:55:40;;;;;;;16.92;2.85;;;20.90;47.30;;;;;;5018314;28;20503;-65
2021/10/30 08:58:08;;;;;;;15.18;3.00;;;20.90;48.50;;;;;;5019111;28;20111;-66
2021/10/30 09:00:38;;;;;;;8.70;2.65;;;21.00;49.10;;;;;;5018946;28;20421;-64
2021/10/30 09:03:05;;;;;;;16.25;2.97;;;21.00;49.00;;;;;;5017105;28;20127;-65
2021/10/30 09:05:32;;;;;;;10.63;2.78;;;21.00;49.90;;;;;;5019072;28;20052;-66
2021/10/30 09:08:04;;;;;;;17.25;2.90;;;21.00;50.30;;;;;;5014804;28;20080;-66
2021/10/30 09:10:35;;;;;;;20.42;2.80;;;21.00;50.50;;;;;;5018957;28;20053;-66
2021/10/30 09:13:04;;;;;;;14.88;2.60;;;21.00;50.30;;;;;;5020285;28;20407;-68
2021/10/30 09:15:32;;;;;;;12.70;2.78;;;21.00;49.40;;;;;;5020474;28;20057;-66
2021/10/30 09:17:59;;;;;;;14.77;2.80;;;21.10;49.50;;;;;;5021043;28;20116;-66
2021/10/30 09:20:36;;;;;;;26.17;2.67;;;21.10;49.30;;;;;;5022481;28;20549;-67
2021/10/30 09:23:07;;;;;;;37.47;3.75;;;21.10;49.50;;;;;;5020081;28;20037;-67
2021/10/30 09:25:32;;;;;;;25.65;4.13;;;21.10;51.00;;;;;;5021682;28;20103;-67
2021/10/30 09:28:02;;;;;;;20.27;3.53;;;21.10;52.60;;;;;;5020450;28;20041;-67
2021/10/30 09:30:33;;;;;;;21.85;4.07;;;21.10;52.50;;;;;;5023879;28;20044;-68
2021/10/30 09:33:01;;;;;;;34.08;4.90;;;21.10;50.60;;;;;;5025288;28;20037;-68
2021/10/30 09:35:32;;;;;;;23.40;4.15;;;21.10;51.50;;;;;;5022917;28;20037;-68
2021/10/30 09:37:58;;;;;;;22.65;4.15;;;21.10;52.80;;;;;;5021182;28;20041;-68
2021/10/30 09:40:29;;;;;;;20.33;3.65;;;21.10;53.30;;;;;;5025139;28;20774;-68
2021/10/30 09:43:12;;;;;;;25.58;4.25;;;21.10;53.50;;;;;;5026257;28;20036;-67
2021/10/30 09:45:40;;;;;;;30.13;4.32;;;21.20;53.50;;;;;;5022335;28;20443;-67
2021/10/30 09:48:09;;;;;;;30.63;3.63;;;21.20;54.10;;;;;;5022994;28;20284;-68
2021/10/30 09:50:34;;;;;;;23.48;3.85;;;21.20;54.50;;;;;;5025621;28;20098;-68
2021/10/30 09:53:33;;;;;;;21.27;3.50;;;21.20;54.60;;;;;;5020457;28;20115;-68
2021/10/30 09:56:05;;;;;;;19.38;3.45;;;21.20;54.50;;;;;;5025528;28;20030;-67
2021/10/30 09:58:45;;;;;;;24.95;4.20;;;21.20;54.70;;;;;;5022570;28;20046;-67
2021/10/30 10:01:20;;;;;;;19.75;4.18;;;21.20;54.40;;;;;;5019716;28;20051;-68
2021/10/30 10:03:50;;;;;;;25.02;3.42;;;21.20;54.10;;;;;;5022886;28;20074;-67
2021/10/30 10:06:23;;;;;;;22.52;3.85;;;21.20;54.50;;;;;;5021615;28;20049;-67
2021/10/30 10:08:50;;;;;;;32.40;4.45;;;21.20;54.50;;;;;;5019765;28;20037;-68
2021/10/30 10:11:20;;;;;;;21.75;4.22;;;21.20;54.90;;;;;;5021376;28;20052;-67
2021/10/30 10:13:48;;;;;;;25.02;3.97;;;21.20;54.70;;;;;;5020216;28;20045;-67
2021/10/30 10:16:22;;;;;;;30.55;4.32;;;21.20;54.00;;;;;;5018526;28;20049;-67
2021/10/30 10:18:49;;;;;;;31.20;4.50;;;21.20;52.00;;;;;;5018095;28;20037;-68
2021/10/30 10:21:22;;;;;;;23.33;3.92;;;21.20;53.50;;;;;;5018076;28;20057;-68
2021/10/30 10:23:47;;;;;;;25.48;3.92;;;21.20;54.40;;;;;;5017702;28;20053;-68
2021/10/30 10:26:15;;;;;;;29.02;3.53;;;21.20;54.20;;;;;;5015541;28;20041;-67
2021/10/30 10:28:43;;;;;;;19.00;3.60;;;21.20;54.40;;;;;;5013297;28;20491;-68
2021/10/30 10:31:23;;;;;;;23.23;3.85;;;21.20;54.40;;;;;;5016777;28;20552;-68
2021/10/30 10:34:08;;;;;;;12.18;3.33;;;21.20;54.20;;;;;;5023635;28;20154;-68
2021/10/30 10:36:35;;;;;;;59.25;5.30;;;21.20;50.50;;;;;;5019139;28;20038;-68
2021/10/30 10:39:01;;;;;;;63.33;5.68;;;21.10;49.30;;;;;;5020049;28;20494;-67
2021/10/30 10:41:44;;;;;;;49.22;4.85;;;21.10;50.10;;;;;;5017704;28;20092;-67
2021/10/30 10:44:22;;;;;;;41.25;5.18;;;21.10;50.60;;;;;;5023308;28;20060;-68
2021/10/30 10:46:53;;;;;;;40.40;4.57;;;21.10;50.80;;;;;;5020766;28;20049;-68
2021/10/30 10:49:43;;;;;;;46.75;4.95;;;21.20;50.80;;;;;;5024196;28;20107;-66
2021/10/30 10:52:19;;;;;;;29.33;4.22;;;21.20;50.70;;;;;;5023657;28;20497;-67
2021/10/30 10:54:53;;;;;;;40.35;4.57;;;21.20;50.60;;;;;;5025669;28;20029;-65
2021/10/30 10:57:22;;;;;;;43.65;4.68;;;21.20;50.60;;;;;;5021910;28;20136;-67
2021/10/30 11:00:10;;;;;;;33.35;3.55;;;21.30;50.60;;;;;;5018387;28;20038;-67
2021/10/30 11:02:40;;;;;;;31.40;3.25;;;21.30;50.60;;;;;;5020415;28;20038;-67
2021/10/30 11:05:08;;;;;;;36.65;4.10;;;21.30;50.50;;;;;;5018580;28;20405;-67
2021/10/30 11:07:41;;;;;;;26.33;3.83;;;21.30;50.40;;;;;;5019348;28;20053;-67
2021/10/30 11:10:10;;;;;;;19.17;3.13;;;21.30;50.40;;;;;;5022440;28;20037;-67
2021/10/30 11:12:36;;;;;;;15.82;2.88;;;21.30;50.30;;;;;;5021610;28;20046;-67
2021/10/30 11:15:14;;;;;;;17.05;3.03;;;21.40;50.40;;;;;;5020239;28;20053;-68
2021/10/30 11:18:04;;;;;;;12.23;3.17;;;21.40;50.20;;;;;;5018131;28;20835;-69
2021/10/30 11:20:34;;;;;;;11.73;3.22;;;21.30;49.50;;;;;;5018297;28;20049;-67
2021/10/30 11:23:02;;;;;;;20.33;3.50;;;21.30;49.80;;;;;;5021662;28;20148;-72
2021/10/30 11:25:32;;;;;;;16.65;3.15;;;21.30;49.80;;;;;;5022615;28;20084;-71
2021/10/30 11:27:59;;;;;;;13.82;3.10;;;21.30;50.40;;;;;;5021180;28;20112;-70
2021/10/30 11:30:38;;;;;;;11.98;2.88;;;21.40;50.00;;;;;;5020881;28;20572;-71
2021/10/30 11:33:38;;;;;;;17.55;2.97;;;21.40;49.90;;;;;;5024540;28;20075;-71
2021/10/30 11:36:13;;;;;;;14.25;3.10;;;21.40;50.40;;;;;;5008694;28;20042;-70
2021/10/30 11:38:51;;;;;;;8.87;3.17;;;21.40;49.70;;;;;;5023474;28;20584;-72
2021/10/30 11:41:37;;;;;;;9.48;3.00;;;21.40;49.60;;;;;;5022275;28;20100;-71
2021/10/30 11:44:08;;;;;;;9.70;2.80;;;21.40;49.50;;;;;;5022236;28;20042;-70
2021/10/30 11:46:45;;;;;;;10.45;2.88;;;21.40;49.40;;;;;;5021280;28;20092;-70
2021/10/30 11:49:22;;;;;;;9.90;3.08;;;21.40;49.40;;;;;;5032034;28;20037;-70
2021/10/30 11:51:48;;;;;;;10.50;2.95;;;21.40;49.40;;;;;;5019870;28;20054;-70
2021/10/30 11:54:14;;;;;;;9.18;2.90;;;21.40;49.40;;;;;;5020491;28;20047;-71
2021/10/30 11:56:44;;;;;;;11.77;2.88;;;21.40;49.90;;;;;;5018410;28;20050;-71
2021/10/30 11:59:10;;;;;;;12.80;2.95;;;21.40;49.20;;;;;;5021589;28;20399;-71
2021/10/30 12:01:40;;;;;;;9.18;2.90;;;21.40;49.80;;;;;;5020239;28;20064;-71
2021/10/30 12:04:05;;;;;;;9.85;2.83;;;21.40;49.10;;;;;;5024108;28;20045;-70
2021/10/30 12:06:34;;;;;;;7.82;2.80;;;21.40;49.10;;;;;;5029866;28;20041;-71
2021/10/30 12:09:02;;;;;;;6.78;2.80;;;21.40;49.00;;;;;;5025077;28;20565;-73
2021/10/30 12:11:29;;;;;;;8.82;3.08;;;21.40;49.00;;;;;;5026387;28;20064;-72
2021/10/30 12:13:59;;;;;;;9.00;2.60;;;21.40;48.90;;;;;;5022855;28;20041;-71
2021/10/30 12:16:28;;;;;;;9.23;3.17;;;21.40;48.90;;;;;;5024048;28;20090;-71
2021/10/30 12:19:04;;;;;;;7.68;2.88;;;21.40;48.80;;;;;;5021452;28;20030;-71
2021/10/30 12:21:34;;;;;;;6.43;2.40;;;21.40;48.80;;;;;;5023425;28;20047;-73
2021/10/30 12:24:05;;;;;;;9.50;2.88;;;21.40;48.80;;;;;;5028847;28;20059;-71
2021/10/30 12:26:50;;;;;;;5.85;2.40;;;21.40;48.80;;;;;;5020746;28;20049;-72
2021/10/30 12:29:21;;;;;;;6.57;2.55;;;21.30;48.60;;;;;;5020565;28;20763;-72
2021/10/30 12:32:08;;;;;;;7.80;2.42;;;21.30;48.70;;;;;;5021369;28;20077;-71
2021/10/30 12:34:35;;;;;;;8.30;2.40;;;21.30;48.80;;;;;;5021225;28;20042;-71
2021/10/30 12:37:12;;;;;;;6.03;2.40;;;21.40;49.00;;;;;;5017135;28;20084;-72
2021/10/30 12:39:40;;;;;;;8.02;2.55;;;21.30;48.80;;;;;;5027890;28;20037;-71
2021/10/30 12:42:14;;;;;;;8.63;2.33;;;21.30;48.80;;;;;;5027562;28;20038;-71
2021/10/30 12:44:40;;;;;;;10.60;2.80;;;21.30;48.70;;;;;;5025416;28;20053;-70
2021/10/30 12:47:14;;;;;;;6.55;2.53;;;21.30;48.80;;;;;;5026809;28;20037;-71